Time;durP1;ratioP1;P1;durP2;ratioP2;P2;SDS_P1;SDS_P2;PMS_P1;PMS_P2;Temp;Humidity;BMP_temperature;BMP_pressure;BME280_temperature;BME280_humidity;BME280_pressure;Samples;Min_cycle;Max_cycle;Signal;HPM_P1;HPM_P2
2023/01/14 00:00:25;;;;;;;32.75;6.88;;;8.70;99.90;;;;;;5039729;28;20025;-71
2023/01/14 00:02:51;;;;;;;30.73;5.35;;;8.70;99.90;;;;;;5037055;28;20086;-71
2023/01/14 00:05:17;;;;;;;29.90;5.68;;;8.70;99.90;;;;;;5038835;28;20021;-71
2023/01/14 00:07:43;;;;;;;37.17;6.40;;;8.60;99.90;;;;;;5038499;28;20036;-71
2023/01/14 00:10:09;;;;;;;32.10;5.65;;;8.60;99.90;;;;;;5041169;28;20028;-72
2023/01/14 00:12:35;;;;;;;41.35;5.40;;;8.60;99.90;;;;;;5037833;28;20527;-71
2023/01/14 00:15:01;;;;;;;36.25;6.20;;;8.60;99.90;;;;;;5041997;28;20029;-71
2023/01/14 00:17:27;;;;;;;37.78;5.65;;;8.60;99.90;;;;;;5051447;28;20032;-71
2023/01/14 00:19:52;;;;;;;38.50;6.13;;;8.60;99.90;;;;;;5054170;28;20565;-72
2023/01/14 00:22:18;;;;;;;41.15;6.90;;;8.50;99.90;;;;;;5048850;28;20366;-72
2023/01/14 00:24:43;;;;;;;44.05;6.63;;;8.50;99.90;;;;;;5051589;28;20461;-72
2023/01/14 00:27:09;;;;;;;32.67;5.60;;;8.50;99.90;;;;;;5052552;28;20017;-71
2023/01/14 00:29:35;;;;;;;43.13;6.63;;;8.50;99.90;;;;;;5050215;28;20036;-71
2023/01/14 00:32:04;;;;;;;37.13;5.75;;;8.50;99.90;;;;;;5050931;28;20021;-71
2023/01/14 00:34:30;;;;;;;38.55;6.70;;;8.50;99.90;;;;;;5049477;28;20086;-71
2023/01/14 00:36:56;;;;;;;38.53;6.03;;;8.50;99.90;;;;;;5053828;28;20032;-71
2023/01/14 00:39:23;;;;;;;33.42;6.38;;;8.50;99.90;;;;;;5049960;28;20017;-71
2023/01/14 00:41:49;;;;;;;36.17;5.72;;;8.50;99.90;;;;;;5050361;28;20021;-72
2023/01/14 00:44:14;;;;;;;36.95;7.18;;;8.50;99.90;;;;;;5049914;28;20032;-71
2023/01/14 00:46:41;;;;;;;38.85;5.97;;;8.50;99.90;;;;;;5050949;28;20029;-72
2023/01/14 00:49:13;;;;;;;42.55;6.72;;;8.50;99.90;;;;;;5053330;28;20440;-71
2023/01/14 00:51:39;;;;;;;33.95;5.97;;;8.50;99.90;;;;;;5046981;28;20048;-71
2023/01/14 00:54:05;;;;;;;41.25;5.90;;;8.50;99.90;;;;;;5049076;28;20056;-71
2023/01/14 00:56:30;;;;;;;32.42;6.38;;;8.50;99.90;;;;;;5051519;28;20064;-71
2023/01/14 00:58:56;;;;;;;37.28;6.28;;;8.50;99.90;;;;;;5048508;28;20074;-72
2023/01/14 01:01:22;;;;;;;36.97;5.93;;;8.40;99.90;;;;;;5053254;28;20030;-71
2023/01/14 01:03:53;;;;;;;39.75;6.30;;;8.50;99.90;;;;;;5049486;28;20359;-72
2023/01/14 01:06:21;;;;;;;30.30;4.80;;;8.40;99.90;;;;;;5055023;28;20079;-71
2023/01/14 01:08:48;;;;;;;38.08;5.45;;;8.40;99.90;;;;;;5047513;28;20156;-71
2023/01/14 01:11:14;;;;;;;32.05;6.25;;;8.50;99.90;;;;;;5051456;28;20040;-71
2023/01/14 01:13:40;;;;;;;33.53;6.93;;;8.30;99.90;;;;;;5056059;28;20064;-71
2023/01/14 01:16:10;;;;;;;33.22;7.05;;;8.40;99.90;;;;;;5052274;28;20489;-72
2023/01/14 01:18:36;;;;;;;39.53;7.57;;;8.40;99.90;;;;;;5048059;28;20017;-71
2023/01/14 01:21:15;;;;;;;35.83;6.40;;;8.40;99.90;;;;;;5059068;28;20021;-71
2023/01/14 01:23:42;;;;;;;37.85;6.07;;;8.30;99.90;;;;;;5067808;28;20456;-71
2023/01/14 01:26:23;;;;;;;34.33;6.15;;;8.40;99.90;;;;;;5055090;28;20036;-71
2023/01/14 01:28:52;;;;;;;34.95;6.15;;;8.30;99.90;;;;;;5054897;28;20481;-72
2023/01/14 01:31:18;;;;;;;35.70;5.78;;;8.40;99.90;;;;;;5063618;28;20041;-72
2023/01/14 01:33:44;;;;;;;35.58;6.25;;;8.30;99.90;;;;;;5067225;28;20361;-71
2023/01/14 01:36:16;;;;;;;26.15;5.53;;;8.20;99.90;;;;;;5055211;28;20087;-71
2023/01/14 01:38:43;;;;;;;47.75;6.07;;;8.20;99.90;;;;;;5054297;28;20104;-71
2023/01/14 01:41:17;;;;;;;41.83;6.70;;;8.10;99.90;;;;;;5058771;28;20480;-71
2023/01/14 01:44:28;;;;;;;29.25;6.30;;;8.20;99.90;;;;;;5056734;28;20031;-71
2023/01/14 01:46:54;;;;;;;38.30;7.20;;;8.10;99.90;;;;;;5058371;28;20056;-71
2023/01/14 01:49:46;;;;;;;31.27;6.55;;;8.10;99.90;;;;;;5058079;28;20458;-71
2023/01/14 01:52:28;;;;;;;42.63;6.43;;;8.10;99.90;;;;;;5055108;28;20049;-71
2023/01/14 01:55:01;;;;;;;36.75;6.03;;;8.20;99.90;;;;;;5050516;28;20378;-72
2023/01/14 01:57:27;;;;;;;;;;;8.10;99.90;;;;;;5067018;28;20527;-71
2023/01/14 02:00:00;;;;;;;40.20;5.60;;;8.10;99.90;;;;;;5057093;28;19936;-71
2023/01/14 02:02:28;;;;;;;36.08;6.28;;;8.20;99.90;;;;;;5060760;28;20107;-72
2023/01/14 02:04:54;;;;;;;24.40;5.35;;;8.10;99.90;;;;;;5060703;28;20043;-72
2023/01/14 02:07:25;;;;;;;41.92;5.80;;;8.20;99.90;;;;;;5065258;28;20020;-71
2023/01/14 02:09:55;;;;;;;33.70;5.07;;;8.20;99.90;;;;;;5052810;28;20025;-71
2023/01/14 02:12:26;;;;;;;51.45;6.70;;;8.10;99.90;;;;;;5058305;28;20024;-72
2023/01/14 02:15:35;;;;;;;33.25;5.57;;;8.00;99.90;;;;;;5062673;28;20109;-72
2023/01/14 02:18:16;;;;;;;35.47;6.20;;;8.00;99.90;;;;;;5058872;28;20051;-72
2023/01/14 02:20:50;;;;;;;39.90;5.40;;;8.10;99.90;;;;;;5067606;28;20024;-71
2023/01/14 02:23:34;;;;;;;35.22;5.88;;;8.10;99.90;;;;;;5061062;28;20024;-72
2023/01/14 02:26:15;;;;;;;43.78;6.18;;;8.10;99.90;;;;;;5056581;28;20025;-71
2023/01/14 02:29:27;;;;;;;36.67;5.85;;;8.10;99.90;;;;;;5049785;28;20063;-71
2023/01/14 02:32:17;;;;;;;31.85;5.18;;;8.00;99.90;;;;;;5053479;28;20051;-71
2023/01/14 02:34:56;;;;;;;34.70;5.65;;;8.00;99.90;;;;;;5045132;28;20032;-71
2023/01/14 02:37:27;;;;;;;43.58;5.82;;;8.00;99.90;;;;;;5055010;28;20038;-71
2023/01/14 02:40:15;;;;;;;35.00;6.22;;;7.90;99.90;;;;;;5057372;28;20022;-71
2023/01/14 02:46:30;;;;;;;32.13;5.07;;;7.90;99.90;;;;;;5059334;28;20051;-71
2023/01/14 02:48:58;;;;;;;29.48;5.75;;;7.90;99.90;;;;;;5057673;28;20024;-71
2023/01/14 02:51:25;;;;;;;33.40;5.28;;;7.80;99.90;;;;;;5060227;28;20013;-71
2023/01/14 02:53:50;;;;;;;30.92;5.13;;;7.90;99.90;;;;;;5060255;28;20350;-71
2023/01/14 02:56:16;;;;;;;33.35;6.03;;;7.80;99.90;;;;;;5052519;28;20120;-71
2023/01/14 02:59:06;;;;;;;31.52;5.72;;;7.80;99.90;;;;;;5059047;28;20025;-71
2023/01/14 03:01:54;;;;;;;40.47;4.72;;;7.80;99.90;;;;;;5053015;28;20040;-71
2023/01/14 03:04:20;;;;;;;33.22;4.75;;;7.80;99.90;;;;;;5053749;28;20031;-71
2023/01/14 03:07:16;;;;;;;36.85;4.93;;;7.90;99.90;;;;;;5059380;28;20021;-71
2023/01/14 03:10:01;;;;;;;38.45;5.10;;;7.90;99.90;;;;;;5054074;28;20464;-71
2023/01/14 03:12:45;;;;;;;32.22;5.70;;;7.90;99.90;;;;;;5060005;28;20040;-71
2023/01/14 03:15:39;;;;;;;35.50;5.10;;;7.90;99.90;;;;;;5062618;28;20106;-71
2023/01/14 03:18:08;;;;;;;32.00;5.35;;;7.90;99.90;;;;;;5046411;28;20440;-71
2023/01/14 03:20:38;;;;;;;33.13;5.00;;;7.90;99.90;;;;;;5064511;28;20129;-71
2023/01/14 03:23:12;;;;;;;25.58;4.68;;;7.90;99.90;;;;;;5059125;28;20039;-71
2023/01/14 03:25:43;;;;;;;32.05;5.15;;;8.00;99.90;;;;;;5061889;28;20036;-71
2023/01/14 03:28:13;;;;;;;29.27;4.63;;;7.90;99.90;;;;;;5048289;28;20045;-71
2023/01/14 03:30:45;;;;;;;31.45;4.88;;;8.00;99.90;;;;;;5055829;28;20024;-71
2023/01/14 03:33:24;;;;;;;28.20;4.35;;;8.00;99.90;;;;;;5055380;28;20041;-71
2023/01/14 03:35:52;;;;;;;26.15;4.28;;;8.00;99.90;;;;;;5050269;28;20492;-71
2023/01/14 03:38:24;;;;;;;29.13;4.15;;;7.90;99.90;;;;;;5058668;28;20029;-71
2023/01/14 03:40:53;;;;;;;29.02;4.90;;;7.90;99.90;;;;;;5058989;28;20443;-71
2023/01/14 03:43:33;;;;;;;35.13;5.63;;;7.90;99.90;;;;;;5058650;28;20040;-71
2023/01/14 03:46:00;;;;;;;33.60;5.03;;;7.90;99.90;;;;;;5060211;28;20436;-72
2023/01/14 03:48:26;;;;;;;28.05;4.68;;;7.90;99.90;;;;;;5060307;28;20051;-71
2023/01/14 03:51:09;;;;;;;28.52;4.75;;;7.90;99.90;;;;;;5056814;28;20485;-71
2023/01/14 03:53:45;;;;;;;29.17;4.82;;;7.90;99.90;;;;;;5062675;28;20016;-71
2023/01/14 03:56:10;;;;;;;37.45;5.80;;;8.00;99.90;;;;;;5059181;28;20037;-72
2023/01/14 03:58:50;;;;;;;29.80;5.35;;;8.10;99.90;;;;;;5046596;28;20021;-72
2023/01/14 04:01:39;;;;;;;30.02;5.05;;;8.00;99.90;;;;;;5063376;28;20029;-71
2023/01/14 04:04:06;;;;;;;28.05;4.32;;;8.10;99.90;;;;;;5056092;28;20437;-71
2023/01/14 04:06:32;;;;;;;30.92;5.25;;;8.00;99.90;;;;;;5062090;28;20032;-71
2023/01/14 04:08:57;;;;;;;23.75;4.05;;;8.00;99.90;;;;;;5056842;28;20021;-71
2023/01/14 04:11:23;;;;;;;27.25;4.05;;;8.00;99.90;;;;;;5062910;28;20036;-71
2023/01/14 04:16:33;;;;;;;31.25;5.13;;;8.00;99.90;;;;;;5057734;28;20577;-71
2023/01/14 04:18:58;;;;;;;28.92;3.97;;;8.00;99.90;;;;;;5057793;28;20025;-71
2023/01/14 04:21:24;;;;;;;25.95;4.32;;;8.10;99.90;;;;;;5059183;28;20032;-71
2023/01/14 04:23:50;;;;;;;34.83;4.47;;;8.10;99.90;;;;;;5051219;28;20495;-72
2023/01/14 04:26:15;;;;;;;31.08;3.95;;;8.10;99.90;;;;;;5056309;28;20026;-71
2023/01/14 04:28:41;;;;;;;26.85;4.57;;;8.10;99.90;;;;;;5058831;28;20025;-71
2023/01/14 04:31:06;;;;;;;25.48;3.90;;;8.10;99.90;;;;;;5056329;28;20473;-71
2023/01/14 04:33:32;;;;;;;31.40;4.55;;;8.10;99.90;;;;;;5053159;28;20035;-71
2023/01/14 04:35:58;;;;;;;23.10;4.82;;;8.10;99.90;;;;;;5055855;28;20029;-72
2023/01/14 04:38:24;;;;;;;30.52;5.40;;;8.10;99.90;;;;;;5058401;28;20024;-71
2023/01/14 04:40:51;;;;;;;20.83;4.13;;;8.10;99.90;;;;;;5059670;28;20111;-71
2023/01/14 04:43:17;;;;;;;29.75;4.90;;;8.00;99.90;;;;;;5053209;28;20047;-71
2023/01/14 04:45:43;;;;;;;27.38;4.60;;;7.90;99.90;;;;;;5053200;28;20477;-72
2023/01/14 04:48:09;;;;;;;27.27;3.97;;;8.00;99.90;;;;;;5060496;28;20044;-71
2023/01/14 04:50:36;;;;;;;27.38;4.90;;;7.90;99.90;;;;;;5056017;28;20074;-72
2023/01/14 04:53:06;;;;;;;29.35;4.75;;;8.00;99.90;;;;;;5063429;28;20021;-71
2023/01/14 04:55:35;;;;;;;26.15;4.35;;;8.00;99.90;;;;;;5051846;28;20499;-71
2023/01/14 04:58:00;;;;;;;25.42;4.93;;;8.00;99.90;;;;;;5063178;28;20033;-71
2023/01/14 05:00:26;;;;;;;24.55;4.07;;;8.00;99.90;;;;;;5068449;28;20031;-71
2023/01/14 05:02:51;;;;;;;24.60;4.15;;;8.10;99.90;;;;;;5063374;28;20474;-72
2023/01/14 05:05:17;;;;;;;31.35;4.18;;;8.00;99.90;;;;;;5062289;28;20067;-71
2023/01/14 05:07:42;;;;;;;27.92;4.35;;;8.10;99.90;;;;;;5055679;28;20055;-72
2023/01/14 05:10:09;;;;;;;22.13;3.95;;;8.10;99.90;;;;;;5042539;28;20438;-72
2023/01/14 05:12:34;;;;;;;25.27;3.97;;;8.00;99.90;;;;;;5064222;28;20552;-71
2023/01/14 05:15:00;;;;;;;34.03;4.35;;;8.10;99.90;;;;;;5056380;28;20100;-71
2023/01/14 05:17:25;;;;;;;30.00;4.20;;;8.10;99.90;;;;;;5059611;28;20028;-71
2023/01/14 05:19:51;;;;;;;28.35;4.75;;;8.10;99.90;;;;;;5057770;28;20543;-71
2023/01/14 05:22:16;;;;;;;35.28;3.97;;;8.10;99.90;;;;;;5059728;28;20108;-71
2023/01/14 05:24:42;;;;;;;21.73;4.00;;;8.10;99.90;;;;;;5065703;28;20460;-71
2023/01/14 05:27:08;;;;;;;24.20;3.90;;;8.10;99.90;;;;;;5064434;28;20032;-71
2023/01/14 05:29:33;;;;;;;24.40;4.65;;;8.10;99.90;;;;;;5054998;28;20108;-71
2023/01/14 05:31:59;;;;;;;32.35;4.85;;;8.10;99.90;;;;;;5060765;28;20496;-71
2023/01/14 05:34:24;;;;;;;26.38;4.15;;;8.20;99.90;;;;;;5055537;28;20042;-72
2023/01/14 05:36:50;;;;;;;31.10;4.90;;;8.20;99.90;;;;;;5054270;28;20063;-71
2023/01/14 05:39:16;;;;;;;24.60;5.07;;;8.20;99.90;;;;;;5054217;28;20429;-71
2023/01/14 05:45:37;;;;;;;37.63;5.05;;;8.20;99.90;;;;;;5065682;28;20040;-71
2023/01/14 05:47:11;;;;;;;24.63;5.00;;;8.20;99.90;;;;;;5051260;28;20036;-71
2023/01/14 05:49:36;;;;;;;25.52;4.32;;;8.20;99.90;;;;;;5055603;28;20033;-71
2023/01/14 05:52:02;;;;;;;34.75;4.70;;;8.20;99.90;;;;;;5063353;28;20024;-71
2023/01/14 05:54:28;;;;;;;29.23;4.38;;;8.20;99.90;;;;;;5060642;28;20417;-71
2023/01/14 05:56:53;;;;;;;23.35;4.15;;;8.30;99.90;;;;;;5060540;28;20388;-71
2023/01/14 05:59:19;;;;;;;18.02;3.90;;;8.30;99.90;;;;;;5059603;28;20033;-71
2023/01/14 06:07:14;;;;;;;39.35;5.35;;;8.40;99.90;;;;;;5060987;28;20124;-71
2023/01/14 06:09:39;;;;;;;26.45;4.80;;;8.30;99.90;;;;;;5062897;28;20068;-71
2023/01/14 06:12:06;;;;;;;21.00;4.22;;;8.30;99.90;;;;;;5057439;28;20074;-71
2023/01/14 06:14:33;;;;;;;24.05;4.78;;;8.30;99.90;;;;;;5062402;28;20017;-69
2023/01/14 06:17:02;;;;;;;23.92;4.25;;;8.30;99.90;;;;;;5057053;28;20060;-70
2023/01/14 06:19:28;;;;;;;18.90;3.65;;;8.30;99.90;;;;;;5059504;28;20012;-70
2023/01/14 06:21:53;;;;;;;22.13;4.10;;;8.30;99.90;;;;;;5056052;28;20048;-70
2023/01/14 06:24:19;;;;;;;24.75;4.28;;;8.30;99.90;;;;;;5058802;28;20025;-71
2023/01/14 06:26:44;;;;;;;27.48;4.60;;;8.40;99.90;;;;;;5056796;28;20131;-71
2023/01/14 06:29:11;;;;;;;18.38;4.15;;;8.20;99.90;;;;;;5060807;28;20114;-71
2023/01/14 06:31:39;;;;;;;26.05;4.50;;;8.20;99.90;;;;;;5056579;28;20043;-70
2023/01/14 06:34:05;;;;;;;23.35;4.15;;;8.30;99.90;;;;;;5057972;28;20026;-69
2023/01/14 06:36:33;;;;;;;31.52;3.40;;;8.30;99.90;;;;;;5062175;28;20037;-69
2023/01/14 06:38:59;;;;;;;26.63;4.80;;;8.40;99.90;;;;;;5061264;28;20155;-69
2023/01/14 06:41:25;;;;;;;25.40;3.95;;;8.40;99.90;;;;;;5060716;28;20111;-70
2023/01/14 06:43:50;;;;;;;32.15;4.75;;;8.50;99.90;;;;;;5050137;28;20388;-71
2023/01/14 06:46:16;;;;;;;27.52;4.75;;;8.40;99.90;;;;;;5057364;28;20022;-70
2023/01/14 06:48:43;;;;;;;26.02;4.63;;;8.30;99.90;;;;;;5058528;28;20017;-70
2023/01/14 06:51:18;;;;;;;33.92;4.47;;;8.40;99.90;;;;;;5052632;28;20388;-70
2023/01/14 06:53:45;;;;;;;23.67;4.32;;;8.40;99.90;;;;;;5054523;28;20017;-71
2023/01/14 06:56:13;;;;;;;27.02;4.70;;;8.30;99.90;;;;;;5055008;28;20115;-71
2023/01/14 06:58:39;;;;;;;22.80;4.18;;;8.40;99.90;;;;;;5052282;28;20125;-70
2023/01/14 07:01:06;;;;;;;25.15;3.72;;;8.40;99.90;;;;;;5062813;28;20025;-70
2023/01/14 07:03:31;;;;;;;30.42;4.65;;;8.30;99.90;;;;;;5060774;28;20077;-70
2023/01/14 07:05:59;;;;;;;23.58;5.28;;;8.40;99.90;;;;;;5052864;28;20020;-70
2023/01/14 07:08:25;;;;;;;21.35;4.88;;;8.30;99.90;;;;;;5064756;28;20082;-70
2023/01/14 07:10:51;;;;;;;22.63;4.97;;;8.30;99.90;;;;;;5051650;28;20025;-71
2023/01/14 07:13:18;;;;;;;24.25;4.57;;;8.40;99.90;;;;;;5059019;28;20063;-70
2023/01/14 07:15:44;;;;;;;28.30;5.05;;;8.30;99.90;;;;;;5055032;28;20024;-70
2023/01/14 07:18:10;;;;;;;19.80;4.78;;;8.30;99.90;;;;;;5057480;28;20044;-70
2023/01/14 07:20:36;;;;;;;26.35;4.28;;;8.30;99.90;;;;;;5055951;28;20142;-70
2023/01/14 07:23:02;;;;;;;16.67;4.00;;;8.40;99.90;;;;;;5062162;28;20060;-70
2023/01/14 07:25:28;;;;;;;18.95;3.70;;;8.40;99.90;;;;;;5055465;28;20016;-69
2023/01/14 07:27:53;;;;;;;25.77;4.93;;;8.30;99.90;;;;;;5055187;28;20025;-69
2023/01/14 07:30:19;;;;;;;18.58;4.32;;;8.40;99.90;;;;;;5055755;28;20025;-69
2023/01/14 07:32:44;;;;;;;23.40;4.38;;;8.40;99.90;;;;;;5062090;28;20044;-70
2023/01/14 07:35:10;;;;;;;15.13;3.67;;;8.50;99.90;;;;;;5056469;28;20025;-70
2023/01/14 07:37:36;;;;;;;16.00;3.20;;;8.50;99.90;;;;;;5062303;28;20036;-70
2023/01/14 07:40:02;;;;;;;19.88;4.40;;;8.40;99.90;;;;;;5052447;28;20110;-70
2023/01/14 07:42:28;;;;;;;16.27;3.30;;;8.40;99.90;;;;;;5060431;28;20047;-70
2023/01/14 07:44:53;;;;;;;32.30;14.75;;;8.50;99.90;;;;;;5045859;28;20025;-69
2023/01/14 07:47:19;;;;;;;14.95;3.40;;;8.40;99.90;;;;;;5062336;28;20048;-69
2023/01/14 07:49:44;;;;;;;15.48;3.22;;;8.40;99.90;;;;;;5052602;28;20029;-69
2023/01/14 07:52:12;;;;;;;17.27;3.15;;;8.40;99.90;;;;;;5053449;28;20388;-69
2023/01/14 07:54:39;;;;;;;19.35;3.17;;;8.40;99.90;;;;;;5052800;28;20020;-69
2023/01/14 07:57:07;;;;;;;15.38;2.75;;;8.50;99.90;;;;;;5052238;28;20037;-69
2023/01/14 07:59:32;;;;;;;12.65;2.63;;;8.50;99.90;;;;;;5043459;28;20039;-69
2023/01/14 08:01:58;;;;;;;11.02;3.15;;;8.60;99.90;;;;;;5057058;28;20033;-70
2023/01/14 08:04:24;;;;;;;13.00;2.70;;;8.50;99.90;;;;;;5062990;28;20028;-70
2023/01/14 08:06:49;;;;;;;10.55;2.20;;;8.70;99.90;;;;;;5058474;28;20021;-70
2023/01/14 08:09:17;;;;;;;9.57;2.35;;;8.60;99.90;;;;;;5055666;28;20013;-70
2023/01/14 08:11:43;;;;;;;12.25;2.53;;;8.60;99.90;;;;;;5064479;28;20036;-71
2023/01/14 08:14:09;;;;;;;5.30;1.60;;;8.70;99.90;;;;;;5051656;28;20025;-71
2023/01/14 08:16:35;;;;;;;6.68;1.58;;;8.70;99.90;;;;;;5056342;28;20089;-70
2023/01/14 08:19:00;;;;;;;10.55;2.15;;;8.70;99.90;;;;;;5064750;28;20028;-71
2023/01/14 08:21:26;;;;;;;8.23;2.00;;;8.70;99.90;;;;;;5051729;28;20027;-71
2023/01/14 08:23:51;;;;;;;10.00;2.45;;;8.70;99.90;;;;;;5055687;28;20021;-71
2023/01/14 08:26:17;;;;;;;6.30;1.45;;;8.70;99.90;;;;;;5048210;28;20470;-70
2023/01/14 08:28:42;;;;;;;6.78;1.42;;;8.70;99.90;;;;;;5052854;28;20130;-70
2023/01/14 08:31:11;;;;;;;5.07;1.80;;;8.80;99.90;;;;;;5067486;28;20068;-70
2023/01/14 08:33:37;;;;;;;7.60;1.67;;;8.80;99.90;;;;;;5054841;28;20100;-70
2023/01/14 08:36:06;;;;;;;4.43;1.40;;;8.80;99.90;;;;;;5053144;28;20112;-71
2023/01/14 08:38:35;;;;;;;5.35;1.20;;;8.70;99.90;;;;;;5060353;28;20031;-71
2023/01/14 08:41:09;;;;;;;11.32;2.22;;;8.80;99.90;;;;;;5063963;28;20104;-72
2023/01/14 08:43:35;;;;;;;5.10;1.38;;;8.80;99.90;;;;;;5057909;28;20392;-71
2023/01/14 08:46:01;;;;;;;7.72;1.50;;;8.90;99.90;;;;;;5059897;28;20013;-71
2023/01/14 08:48:27;;;;;;;7.30;1.45;;;8.90;99.90;;;;;;5063456;28;20020;-71
2023/01/14 08:50:53;;;;;;;6.95;1.67;;;8.90;99.90;;;;;;5046137;28;20029;-71
2023/01/14 08:53:19;;;;;;;6.22;1.52;;;8.90;99.90;;;;;;5067438;28;20039;-71
2023/01/14 08:55:44;;;;;;;6.68;2.00;;;9.00;99.90;;;;;;5065106;28;20455;-70
2023/01/14 08:58:10;;;;;;;9.13;2.03;;;9.00;99.90;;;;;;5053967;28;20532;-69
2023/01/14 09:00:36;;;;;;;6.25;1.60;;;9.00;99.90;;;;;;5066626;28;20069;-70
2023/01/14 09:03:02;;;;;;;6.45;1.42;;;9.00;99.90;;;;;;5066861;28;20112;-71
2023/01/14 09:05:30;;;;;;;7.28;2.03;;;9.00;99.90;;;;;;5055420;28;20146;-70
2023/01/14 09:18:58;;;;;;;8.80;2.33;;;9.10;99.90;;;;;;5051826;28;20075;-70
2023/01/14 09:21:24;;;;;;;9.07;2.42;;;9.20;99.90;;;;;;5060695;28;20024;-71
2023/01/14 09:23:50;;;;;;;5.65;1.90;;;9.20;99.90;;;;;;5065493;28;20024;-71
2023/01/14 09:26:16;;;;;;;11.38;1.83;;;9.20;99.90;;;;;;5064374;28;20048;-71
2023/01/14 09:28:41;;;;;;;11.32;2.40;;;9.20;99.90;;;;;;5063148;28;20060;-70
2023/01/14 09:31:07;;;;;;;12.15;2.50;;;9.20;99.90;;;;;;5021585;28;20367;-70
2023/01/14 09:33:33;;;;;;;11.63;2.85;;;9.30;99.90;;;;;;5041685;28;20033;-70
2023/01/14 09:36:01;;;;;;;12.88;2.28;;;9.30;99.90;;;;;;5041063;28;20044;-70
2023/01/14 09:38:28;;;;;;;12.13;3.95;;;9.30;99.90;;;;;;5043909;28;20040;-70
2023/01/14 09:40:54;;;;;;;14.50;3.03;;;9.30;99.90;;;;;;5037959;28;20027;-70
2023/01/14 09:43:21;;;;;;;10.60;2.65;;;9.30;99.90;;;;;;5046316;28;20087;-69
2023/01/14 09:45:55;;;;;;;9.85;4.55;;;9.30;99.90;;;;;;5042053;28;20033;-69
2023/01/14 09:48:23;;;;;;;9.88;2.63;;;9.40;99.90;;;;;;5040858;28;20017;-70
2023/01/14 09:50:48;;;;;;;14.90;3.33;;;9.40;99.90;;;;;;5041112;28;20056;-70
2023/01/14 09:53:17;;;;;;;15.70;3.10;;;9.50;99.90;;;;;;5042173;28;20469;-70
2023/01/14 09:55:56;;;;;;;13.05;2.90;;;9.50;99.90;;;;;;5037123;28;20100;-71
2023/01/14 09:58:54;;;;;;;12.30;2.92;;;9.40;99.90;;;;;;5040745;28;20041;-71
2023/01/14 10:01:28;;;;;;;13.32;2.78;;;9.40;99.90;;;;;;5036818;28;20060;-71
2023/01/14 10:04:36;;;;;;;10.90;2.85;;;9.50;99.90;;;;;;5041865;28;20029;-72
2023/01/14 10:07:03;;;;;;;14.57;2.60;;;9.50;99.90;;;;;;5038100;28;20120;-72
2023/01/14 10:09:44;;;;;;;15.20;2.58;;;9.50;99.90;;;;;;5038145;28;20105;-72
2023/01/14 10:12:20;;;;;;;16.08;2.85;;;9.60;99.90;;;;;;5037240;28;20028;-71
2023/01/14 10:14:54;;;;;;;13.80;2.63;;;9.60;99.90;;;;;;5042542;28;20477;-71
2023/01/14 10:17:22;;;;;;;13.10;2.35;;;9.60;99.90;;;;;;5042564;28;20741;-71
2023/01/14 10:19:50;;;;;;;8.20;2.38;;;9.60;99.90;;;;;;5040251;28;20028;-72
2023/01/14 10:22:28;;;;;;;9.35;1.65;;;9.60;99.90;;;;;;5042087;28;20040;-72
2023/01/14 10:24:54;;;;;;;10.43;2.50;;;9.70;99.90;;;;;;5041491;28;20033;-72
2023/01/14 10:27:19;;;;;;;8.68;2.10;;;9.70;99.90;;;;;;5040955;28;20033;-72
2023/01/14 10:29:48;;;;;;;9.98;1.85;;;9.70;99.90;;;;;;5038449;28;20489;-72
2023/01/14 10:32:15;;;;;;;11.02;2.22;;;9.70;99.90;;;;;;5040392;28;20025;-72
2023/01/14 10:34:45;;;;;;;5.30;1.92;;;9.70;99.90;;;;;;5043445;28;20039;-73
2023/01/14 10:37:11;;;;;;;8.77;1.58;;;9.70;99.90;;;;;;5056552;28;20036;-71
2023/01/14 10:39:42;;;;;;;8.20;2.05;;;9.70;99.90;;;;;;5042336;28;20385;-71
2023/01/14 10:42:11;;;;;;;6.13;1.90;;;9.70;99.90;;;;;;5041351;28;20173;-72
2023/01/14 10:44:43;;;;;;;6.30;1.55;;;9.80;99.90;;;;;;5035830;28;20025;-72
2023/01/14 10:47:13;;;;;;;5.38;1.20;;;9.90;99.90;;;;;;5038784;28;20017;-72
2023/01/14 10:49:53;;;;;;;5.00;1.67;;;9.90;99.90;;;;;;5043167;28;20036;-72
2023/01/14 10:52:28;;;;;;;8.27;1.77;;;9.90;99.90;;;;;;5041592;28;20040;-72
2023/01/14 10:55:24;;;;;;;5.30;1.92;;;9.90;99.90;;;;;;5038474;28;20025;-71
2023/01/14 10:57:56;;;;;;;5.80;1.23;;;9.90;99.90;;;;;;5039606;28;20449;-72
2023/01/14 11:00:43;;;;;;;6.90;1.35;;;9.90;99.90;;;;;;5041235;28;20095;-72
2023/01/14 11:03:28;;;;;;;4.45;1.55;;;9.90;99.90;;;;;;5040335;28;20029;-71
2023/01/14 11:05:59;;;;;;;5.07;1.42;;;9.90;99.90;;;;;;5041146;28;20112;-72
2023/01/14 11:08:33;;;;;;;2.95;1.20;;;9.90;99.90;;;;;;5041383;28;20032;-72
2023/01/14 11:11:03;;;;;;;5.90;1.60;;;10.00;99.90;;;;;;5036448;28;20021;-72
2023/01/14 11:13:44;;;;;;;5.25;1.10;;;10.00;99.90;;;;;;5041097;28;20027;-70
2023/01/14 11:16:21;;;;;;;2.92;1.20;;;10.10;99.90;;;;;;5033943;28;20044;-74
2023/01/14 11:19:16;;;;;;;3.30;1.20;;;10.00;99.90;;;;;;5039081;28;20033;-70
2023/01/14 11:21:44;;;;;;;3.70;1.05;;;10.10;99.90;;;;;;5039550;28;20029;-68
2023/01/14 11:24:39;;;;;;;5.55;0.90;;;10.10;99.90;;;;;;5038054;28;20575;-76
2023/01/14 11:27:14;;;;;;;3.60;0.90;;;10.00;99.90;;;;;;5039638;28;20485;-72
2023/01/14 11:29:57;;;;;;;4.03;0.85;;;10.10;99.90;;;;;;5037479;28;20427;-72
2023/01/14 11:32:28;;;;;;;2.33;0.63;;;10.10;99.90;;;;;;5038106;28;20028;-69
2023/01/14 11:35:02;;;;;;;1.08;0.55;;;10.00;99.90;;;;;;5038468;28;20029;-71
2023/01/14 11:37:29;;;;;;;1.45;0.50;;;10.10;99.90;;;;;;5035419;28;20072;-70
2023/01/14 11:39:57;;;;;;;1.25;0.50;;;10.10;99.90;;;;;;5037588;28;20103;-70
2023/01/14 11:42:26;;;;;;;4.22;0.70;;;10.20;99.90;;;;;;5035990;28;20033;-69
2023/01/14 11:45:14;;;;;;;1.45;0.65;;;10.10;99.90;;;;;;5039375;28;20026;-70
2023/01/14 11:47:49;;;;;;;2.10;0.63;;;10.10;99.90;;;;;;5042529;28;20107;-69
2023/01/14 11:50:17;;;;;;;0.93;0.50;;;10.10;99.90;;;;;;5046297;28;20428;-74
2023/01/14 11:53:16;;;;;;;2.30;0.93;;;10.20;99.90;;;;;;5051321;28;20040;-71
2023/01/14 11:55:44;;;;;;;2.42;0.80;;;10.20;99.90;;;;;;5057978;28;20111;-72
2023/01/14 11:58:27;;;;;;;6.68;0.50;;;10.20;99.90;;;;;;5048838;28;20029;-73
2023/01/14 12:01:42;;;;;;;1.25;0.70;;;10.20;99.90;;;;;;5048678;28;20083;-72
2023/01/14 12:04:24;;;;;;;2.90;0.52;;;10.30;99.90;;;;;;5046503;28;20397;-72
2023/01/14 12:07:20;;;;;;;1.05;0.40;;;10.30;99.90;;;;;;5049298;28;20017;-71
2023/01/14 12:10:12;;;;;;;1.27;0.47;;;10.30;99.90;;;;;;5051682;28;20065;-72
2023/01/14 12:19:03;;;;;;;0.63;0.40;;;10.40;99.90;;;;;;5051707;28;20086;-72
2023/01/14 12:21:35;;;;;;;1.27;0.60;;;10.40;99.90;;;;;;5046496;28;20035;-70
2023/01/14 12:24:10;;;;;;;1.33;0.60;;;10.40;99.90;;;;;;5051468;28;20420;-72
2023/01/14 12:26:42;;;;;;;2.28;0.52;;;10.40;99.90;;;;;;5048059;28;20084;-72
2023/01/14 12:29:16;;;;;;;2.90;0.73;;;10.40;99.90;;;;;;5054506;28;20389;-72
2023/01/14 12:31:44;;;;;;;2.13;0.60;;;10.40;99.90;;;;;;5048790;28;20637;-69
2023/01/14 12:34:19;;;;;;;1.50;0.60;;;10.40;99.90;;;;;;5054819;28;20025;-69
2023/01/14 12:36:54;;;;;;;1.90;0.77;;;10.40;99.90;;;;;;5048132;28;20108;-70
2023/01/14 12:45:44;;;;;;;2.70;1.05;;;10.50;99.90;;;;;;5050039;28;20048;-71
2023/01/14 12:48:12;;;;;;;2.47;1.10;;;10.50;99.90;;;;;;5053119;28;20021;-70
2023/01/14 12:50:48;;;;;;;2.03;0.60;;;10.50;99.90;;;;;;5046383;28;20499;-71
2023/01/14 12:53:29;;;;;;;4.18;0.60;;;10.50;99.90;;;;;;5051306;28;20028;-71
2023/01/14 12:55:59;;;;;;;1.65;0.60;;;10.60;99.90;;;;;;5049116;28;20374;-71
2023/01/14 12:58:29;;;;;;;2.33;0.65;;;10.50;99.90;;;;;;5054140;28;20103;-71
2023/01/14 13:00:58;;;;;;;0.70;0.63;;;10.60;99.90;;;;;;5049461;28;20044;-69
2023/01/14 13:03:46;;;;;;;0.75;0.60;;;10.60;99.90;;;;;;5052271;28;20026;-69
2023/01/14 13:06:17;;;;;;;2.03;1.05;;;10.60;99.90;;;;;;5049850;28;20033;-69
2023/01/14 13:08:50;;;;;;;1.30;0.63;;;10.60;99.90;;;;;;5044480;28;20029;-69
2023/01/14 13:11:27;;;;;;;1.58;0.80;;;10.70;99.90;;;;;;5051349;28;20028;-69
2023/01/14 13:13:58;;;;;;;1.33;0.57;;;10.70;99.90;;;;;;5045964;28;20037;-73
2023/01/14 13:16:44;;;;;;;1.50;0.70;;;10.70;99.90;;;;;;5058329;28;20376;-71
2023/01/14 13:19:25;;;;;;;2.25;1.02;;;10.70;99.90;;;;;;5050692;28;20477;-71
2023/01/14 13:22:05;;;;;;;18.00;8.57;;;10.70;99.90;;;;;;5058578;28;20032;-71
2023/01/14 13:24:36;;;;;;;6.68;3.00;;;10.80;99.90;;;;;;5055989;28;20429;-71
2023/01/14 13:27:23;;;;;;;2.70;0.85;;;10.70;99.90;;;;;;5052415;28;20354;-70
2023/01/14 13:29:49;;;;;;;2.65;0.80;;;10.70;99.90;;;;;;5051116;28;20060;-71
2023/01/14 13:32:54;;;;;;;2.03;0.88;;;10.70;99.90;;;;;;5056853;28;20063;-72
2023/01/14 13:35:21;;;;;;;0.85;0.80;;;10.80;99.90;;;;;;5050650;28;20130;-71
2023/01/14 13:37:49;;;;;;;1.60;0.50;;;10.80;99.90;;;;;;5053963;28;20024;-71
2023/01/14 13:40:23;;;;;;;1.75;0.68;;;10.80;99.90;;;;;;5058098;28;20386;-72
2023/01/14 13:43:25;;;;;;;2.53;1.25;;;10.80;99.90;;;;;;5055857;28;20362;-72
2023/01/14 13:45:59;;;;;;;3.55;1.20;;;10.90;99.90;;;;;;5054642;28;20477;-72